Catàleg de serveis del Meteocat
Campanya meteocatpedra

Dades de l'estació automàtica Tornabous

?
?
Resum diari 20:30 TU
Dades diàries de l'estació meteorològica
Temperatura mitjana 23.6 °C
Temperatura màxima 30.5 °C 15:55 TU
Temperatura mínima 16.3 °C 1:00 TU
Humitat relativa mitjana 66%
Precipitació acumulada 0.0 mm
Ratxa màxima del vent (2 m) 21.6 km/h - 275º 11:40 TU

El tram horari està expressat en Temps Universal (TU). Cal sumar una hora en horari d'hivern i dues en horari d'estiu per passar a l'hora oficial.

Tornabous

Metadades estació meteorol´gica
Municipi Tornabous
Comarca Urgell
Altitud 291 m
Data alta 06.08.2013
Estat actual Operativa
Dades de període
Període
TU
TM
°C
TX
°C
TN
°C
HRM
%
PPT
mm
VVM (2 m)
km/h
DVM (2 m)
graus
VVX (2 m)
km/h
00:00 - 00:30 17.2 17.7 16.7 89 0.0 0.4 72 1.8
00:30 - 01:00 16.4 16.7 16.3 94 0.0 0.0 54 1.4
01:00 - 01:30 16.7 17.0 16.3 92 0.0 1.4 61 2.5
01:30 - 02:00 16.5 16.9 16.4 92 0.0 1.1 99 2.2
02:00 - 02:30 16.4 16.5 16.4 93 0.0 1.1 107 2.9
02:30 - 03:00 16.5 16.6 16.5 92 0.0 1.4 104 3.6
03:00 - 03:30 16.9 17.4 16.6 92 0.0 1.1 137 5.4
03:30 - 04:00 17.7 18.0 17.3 88 0.0 2.2 193 4.3
04:00 - 04:30 17.9 18.8 17.3 88 0.0 4.3 205 13.0
04:30 - 05:00 18.8 18.9 18.7 84 0.0 6.8 226 13.7
05:00 - 05:30 18.9 19.3 18.7 84 0.0 5.8 247 12.6
05:30 - 06:00 19.2 19.2 19.1 81 0.0 6.8 258 13.3
06:00 - 06:30 19.3 19.4 19.1 81 0.0 6.8 260 14.4
06:30 - 07:00 19.3 19.4 19.3 81 0.0 5.4 264 11.5
07:00 - 07:30 20.5 21.1 19.5 75 0.0 9.0 248 17.3
07:30 - 08:00 21.4 21.7 21.1 71 0.0 9.7 247 17.6
08:00 - 08:30 22.1 22.4 21.8 69 0.0 9.4 261 16.2
08:30 - 09:00 22.8 23.3 22.3 65 0.0 8.6 236 17.6
09:00 - 09:30 23.7 24.0 23.2 64 0.0 8.3 262 18.7
09:30 - 10:00 24.1 24.5 23.6 63 0.0 9.0 257 17.6
10:00 - 10:30 24.8 25.2 24.4 62 0.0 9.0 257 19.1
10:30 - 11:00 25.5 25.8 25.0 58 0.0 9.4 259 18.4
11:00 - 11:30 26.1 26.6 25.7 57 0.0 9.0 267 16.9
11:30 - 12:00 26.7 27.1 26.2 56 0.0 8.6 269 21.6
12:00 - 12:30 27.3 28.1 26.6 54 0.0 7.2 261 18.0
12:30 - 13:00 28.1 28.6 27.7 51 0.0 9.4 255 18.4
13:00 - 13:30 28.5 28.9 28.3 50 0.0 8.6 254 18.7
13:30 - 14:00 29.1 29.5 28.7 48 0.0 8.3 250 16.6
14:00 - 14:30 29.7 30.0 29.4 47 0.0 8.3 264 20.5
14:30 - 15:00 29.9 30.4 29.3 46 0.0 7.9 266 16.2
15:00 - 15:30 29.9 30.4 29.6 44 0.0 8.3 261 15.5
15:30 - 16:00 30.0 30.5 29.6 42 0.0 8.6 255 15.5
16:00 - 16:30 30.3 30.5 30.2 40 0.0 8.3 261 15.5
16:30 - 17:00 30.2 30.4 30.1 40 0.0 8.3 250 15.1
17:00 - 17:30 30.2 30.3 30.0 42 0.0 6.8 253 12.2
17:30 - 18:00 29.9 30.1 29.7 44 0.0 5.4 262 12.6
18:00 - 18:30 29.7 30.4 27.9 49 0.0 0.7 289 4.7
18:30 - 19:00 26.9 27.8 26.0 62 0.0 1.1 132 6.8
19:00 - 19:30 25.3 25.9 24.7 60 0.0 2.5 153 7.6
19:30 - 20:00 24.2 24.6 23.6 62 0.0 2.9 133 8.6
20:00 - 20:30 23.4 23.6 23.2 67 0.0 3.6 149 10.1
20:30 - 21:00 22.9 23.3 22.4 72 0.0 2.9 150 9.4
21:00 - 21:30 (s/d) (s/d) (s/d) (s/d) (s/d) (s/d) (s/d) (s/d)

Les dades en taronja només han passat un control de qualitat automàtic. Resta pendent la seva validació definitiva.